createdAt,value
2023-11-22T00:02:10.091Z,94911.49
2023-11-22T00:04:38.250Z,94908.96
2023-11-22T00:07:06.383Z,94911.73
2023-11-22T00:09:34.598Z,94911.08
2023-11-22T00:12:03.865Z,94906.98
2023-11-22T00:14:32.156Z,94911.87
2023-11-22T00:17:03.078Z,94914.34
2023-11-22T00:19:31.789Z,94915.64
2023-11-22T00:21:59.897Z,94913.07
2023-11-22T00:24:28.124Z,94916.11
2023-11-22T00:26:56.198Z,94917.13
2023-11-22T00:29:24.424Z,94915.26
2023-11-22T00:31:52.586Z,94913.05
2023-11-22T00:34:21.457Z,94916.06
2023-11-22T00:36:50.246Z,94920.52
2023-11-22T00:39:19.823Z,94919.36
2023-11-22T00:41:48.269Z,94917.73
2023-11-22T00:44:16.487Z,94917.31
2023-11-22T00:46:46.976Z,94916.92
2023-11-22T00:49:15.270Z,94915.66
2023-11-22T00:51:43.471Z,94912.05
2023-11-22T00:54:11.656Z,94916.13
2023-11-22T00:56:41.190Z,94913.14
2023-11-22T00:59:09.833Z,94910.70
2023-11-22T01:01:38.051Z,94909.66
2023-11-22T01:04:08.287Z,94909.08
2023-11-22T01:06:37.991Z,94905.49
2023-11-22T01:09:06.551Z,94903.55
2023-11-22T01:11:34.628Z,94903.40
2023-11-22T01:14:03.345Z,94900.02
2023-11-22T01:16:31.613Z,94901.31
2023-11-22T01:18:59.893Z,94903.20
2023-11-22T01:21:28.114Z,94901.35
2023-11-22T01:23:56.589Z,94898.98
2023-11-22T01:26:25.102Z,94896.05
2023-11-22T01:28:53.417Z,94890.89
2023-11-22T01:31:22.569Z,94890.65
2023-11-22T01:33:50.842Z,94888.70
2023-11-22T01:36:18.948Z,94886.54
2023-11-22T01:38:47.647Z,94891.19
2023-11-22T01:41:15.755Z,94888.75
2023-11-22T01:43:43.954Z,94888.56
2023-11-22T01:46:26.675Z,94885.23
2023-11-22T01:48:55.854Z,94889.25
2023-11-22T01:51:25.868Z,94898.24
2023-11-22T01:53:57.982Z,94904.11
2023-11-22T01:56:28.565Z,94904.44
2023-11-22T01:58:59.175Z,94907.52
2023-11-22T02:01:28.557Z,94905.79
2023-11-22T02:03:56.847Z,94909.56
2023-11-22T02:06:25.987Z,94911.02
2023-11-22T02:08:54.099Z,94908.30
2023-11-22T02:11:23.641Z,94906.23
2023-11-22T02:13:52.585Z,94910.24
2023-11-22T02:16:21.685Z,94905.04
2023-11-22T02:18:50.441Z,94906.20
2023-11-22T02:21:18.822Z,94903.30
2023-11-22T02:23:47.826Z,94901.58
2023-11-22T02:26:19.271Z,94899.41
2023-11-22T02:28:48.403Z,94904.89
2023-11-22T02:31:16.588Z,94908.29
2023-11-22T02:33:46.498Z,94908.68
2023-11-22T02:36:14.699Z,94910.84
2023-11-22T02:38:45.378Z,94911.83
2023-11-22T02:41:14.857Z,94917.48
2023-11-22T02:43:43.153Z,94915.77
2023-11-22T02:46:11.326Z,94918.00
2023-11-22T02:48:40.173Z,94917.42
2023-11-22T02:51:08.785Z,94923.91
2023-11-22T02:53:37.025Z,94928.45
2023-11-22T02:56:06.401Z,94931.27
2023-11-22T02:58:34.762Z,94934.52
2023-11-22T03:01:03.029Z,94934.38
2023-11-22T03:03:31.339Z,94937.54
2023-11-22T03:05:59.552Z,94939.11
2023-11-22T03:08:28.392Z,94937.88
2023-11-22T03:10:56.608Z,94937.76
2023-11-22T03:13:24.781Z,94941.17
2023-11-22T03:15:53.301Z,94944.79
2023-11-22T03:18:22.818Z,94951.78
2023-11-22T03:20:55.621Z,94956.74
2023-11-22T03:23:24.128Z,94959.58
2023-11-22T03:25:52.437Z,94961.63
2023-11-22T03:28:20.576Z,94965.95
2023-11-22T03:30:48.754Z,94970.63
2023-11-22T03:33:17.595Z,94975.30
2023-11-22T03:35:45.917Z,94973.19
2023-11-22T03:38:14.375Z,94974.90
2023-11-22T03:40:42.649Z,94975.38
2023-11-22T03:43:11.648Z,94979.64
2023-11-22T03:45:39.934Z,94982.91
2023-11-22T03:48:08.246Z,94988.70
2023-11-22T03:50:36.930Z,94990.55
2023-11-22T03:53:05.467Z,94992.17
2023-11-22T03:55:33.571Z,94998.07
2023-11-22T03:58:02.464Z,94999.59
2023-11-22T04:00:30.761Z,95004.74
2023-11-22T04:03:01.412Z,95002.83
2023-11-22T04:05:30.160Z,95007.67
2023-11-22T04:07:58.405Z,95011.80
2023-11-22T04:10:26.657Z,95013.74
2023-11-22T04:12:54.839Z,95012.02
2023-11-22T04:15:23.151Z,95017.04
2023-11-22T04:17:51.754Z,95021.91
2023-11-22T04:20:20.528Z,95026.86
2023-11-22T04:22:48.915Z,95030.41
2023-11-22T04:25:17.079Z,95032.83
2023-11-22T04:27:45.228Z,95032.11
2023-11-22T04:30:15.567Z,95036.30
2023-11-22T04:32:45.670Z,95047.19
2023-11-22T04:35:14.664Z,95049.42
2023-11-22T04:37:44.297Z,95049.71
2023-11-22T04:40:12.921Z,95047.69
2023-11-22T04:42:41.400Z,95051.02
2023-11-22T04:45:11.111Z,95048.95
2023-11-22T04:47:39.683Z,95046.25
2023-11-22T04:50:08.366Z,95051.77
2023-11-22T04:52:36.656Z,95054.06
2023-11-22T04:55:05.908Z,95052.98
2023-11-22T04:57:34.695Z,95060.47
2023-11-22T05:00:06.066Z,95060.42
2023-11-22T05:02:34.482Z,95064.81
2023-11-22T05:05:02.854Z,95070.88
2023-11-22T05:07:30.989Z,95068.85
2023-11-22T05:09:59.494Z,95072.48
2023-11-22T05:12:27.837Z,95071.70
2023-11-22T05:14:55.953Z,95073.20
2023-11-22T05:17:24.479Z,95072.27
2023-11-22T05:19:52.620Z,95072.80
2023-11-22T05:22:20.858Z,95074.06
2023-11-22T05:24:48.996Z,95076.64
2023-11-22T05:27:17.991Z,95085.30
2023-11-22T05:29:52.857Z,95085.40
2023-11-22T05:32:23.780Z,95090.05
2023-11-22T05:34:52.234Z,95092.16
2023-11-22T05:37:22.173Z,95092.95
2023-11-22T05:39:50.506Z,95092.69
2023-11-22T05:42:19.367Z,95092.20
2023-11-22T05:44:48.309Z,95095.20
2023-11-22T05:47:19.923Z,95099.39
2023-11-22T05:49:49.697Z,95098.36
2023-11-22T05:52:21.821Z,95108.80
2023-11-22T05:54:50.695Z,95113.80
2023-11-22T05:57:21.527Z,95113.55
2023-11-22T05:59:53.302Z,95116.69
2023-11-22T06:02:23.764Z,95122.17
2023-11-22T06:04:55.510Z,95131.14
2023-11-22T06:07:26.204Z,95133.02
2023-11-22T06:09:54.520Z,95135.77
2023-11-22T06:12:26.399Z,95137.66
2023-11-22T06:15:02.933Z,95143.67
2023-11-22T06:17:36.581Z,95143.12
2023-11-22T06:20:06.904Z,95145.84
2023-11-22T06:22:38.800Z,95153.40
2023-11-22T06:25:07.788Z,95158.33
2023-11-22T06:27:36.844Z,95160.98
2023-11-22T06:30:10.615Z,95166.86
2023-11-22T06:32:39.043Z,95168.48
2023-11-22T06:35:10.223Z,95171.84
2023-11-22T06:37:38.988Z,95171.50
2023-11-22T06:40:09.330Z,95177.09
2023-11-22T06:42:37.950Z,95181.23
2023-11-22T06:45:11.228Z,95184.23
2023-11-22T06:47:40.674Z,95184.98
2023-11-22T06:50:13.559Z,95186.44
2023-11-22T06:52:42.632Z,95188.81
2023-11-22T06:55:11.568Z,95190.23
2023-11-22T06:57:40.444Z,95193.20
2023-11-22T07:00:10.847Z,95196.98
2023-11-22T07:02:39.590Z,95199.73
2023-11-22T07:05:10.523Z,95204.48
2023-11-22T07:07:41.665Z,95202.00
2023-11-22T07:10:12.905Z,95209.11
2023-11-22T07:12:41.328Z,95210.64
2023-11-22T07:15:16.362Z,95210.27
2023-11-22T07:17:44.556Z,95212.05
2023-11-22T07:20:17.707Z,95218.08
2023-11-22T07:22:47.417Z,95219.09
2023-11-22T07:25:21.887Z,95224.14
2023-11-22T07:27:50.241Z,95227.46
2023-11-22T07:30:21.299Z,95227.65
2023-11-22T07:32:53.334Z,95232.02
2023-11-22T07:35:22.105Z,95229.52
2023-11-22T07:37:53.096Z,95226.21
2023-11-22T07:40:24.387Z,95224.81
2023-11-22T07:42:52.595Z,95224.50
2023-11-22T07:45:20.738Z,95223.16
2023-11-22T07:47:49.850Z,95221.71
2023-11-22T07:50:23.340Z,95221.77
2023-11-22T07:53:10.342Z,95222.56
2023-11-22T07:55:43.282Z,95218.52
2023-11-22T07:58:12.241Z,95218.22
2023-11-22T08:00:50.953Z,95222.82
2023-11-22T08:03:19.920Z,95227.40
2023-11-22T08:06:03.155Z,95228.17
2023-11-22T08:08:48.205Z,95230.38
2023-11-22T08:11:22.347Z,95240.82
2023-11-22T08:17:19.291Z,95244.34
2023-11-22T08:19:51.886Z,95243.17
2023-11-22T08:22:20.140Z,95246.24
2023-11-22T08:24:48.981Z,95250.91
2023-11-22T08:27:18.265Z,95260.85
2023-11-22T08:29:50.792Z,95261.27
2023-11-22T08:32:29.224Z,95267.24
2023-11-22T08:34:58.814Z,95264.12
2023-11-22T08:37:28.338Z,95264.78
2023-11-22T08:39:56.430Z,95262.84
2023-11-22T08:42:24.835Z,95271.66
2023-11-22T08:44:53.169Z,95277.64
2023-11-22T08:47:21.498Z,95277.01
2023-11-22T08:49:49.761Z,95276.58
2023-11-22T08:52:19.011Z,95282.57
2023-11-22T08:54:49.017Z,95286.15
2023-11-22T08:57:18.217Z,95285.39
2023-11-22T08:59:46.579Z,95290.29
2023-11-22T09:02:16.326Z,95289.07
2023-11-22T09:04:44.969Z,95282.41
2023-11-22T09:07:18.918Z,95278.34
2023-11-22T09:09:49.572Z,95274.97
2023-11-22T09:12:21.182Z,95274.13
2023-11-22T09:14:49.750Z,95275.45
2023-11-22T09:17:22.010Z,95275.73
2023-11-22T09:20:38.121Z,95272.75
2023-11-22T09:23:30.229Z,95276.36
2023-11-22T09:26:02.467Z,95273.88
2023-11-22T09:28:36.409Z,95280.53
2023-11-22T09:31:20.427Z,95282.02
2023-11-22T09:33:53.759Z,95279.77
2023-11-22T09:36:23.452Z,95277.61
2023-11-22T09:38:53.577Z,95278.92
2023-11-22T09:41:23.014Z,95279.98
2023-11-22T09:43:56.772Z,95279.85
2023-11-22T09:46:27.913Z,95282.80
2023-11-22T09:49:23.447Z,95289.17
2023-11-22T09:51:57.357Z,95290.52
2023-11-22T09:57:39.609Z,95290.23
2023-11-22T10:00:19.801Z,95287.64
2023-11-22T10:02:49.542Z,95289.34
2023-11-22T10:05:22.002Z,95286.70
2023-11-22T10:07:55.185Z,95289.88
2023-11-22T10:10:24.504Z,95291.11
2023-11-22T10:12:57.316Z,95293.40
2023-11-22T10:15:29.218Z,95295.30
2023-11-22T10:18:04.186Z,95292.16
2023-11-22T10:20:44.071Z,95294.95
2023-11-22T10:23:21.173Z,95294.85
2023-11-22T10:25:54.495Z,95299.68
2023-11-22T10:28:27.436Z,95306.73
2023-11-22T10:30:56.060Z,95311.64
2023-11-22T10:33:29.861Z,95311.67
2023-11-22T10:36:05.486Z,95317.66
2023-11-22T10:38:38.752Z,95317.84
2023-11-22T10:41:10.008Z,95318.77
2023-11-22T10:43:40.558Z,95319.52
2023-11-22T10:46:12.793Z,95320.23
2023-11-22T10:48:43.017Z,95328.66
2023-11-22T10:51:15.769Z,95333.26
2023-11-22T10:53:50.651Z,95341.64
2023-11-22T10:56:22.392Z,95343.91
2023-11-22T11:01:27.756Z,95352.67
2023-11-22T11:04:13.134Z,95356.24
2023-11-22T11:06:47.453Z,95361.02
2023-11-22T11:09:18.029Z,95361.04
2023-11-22T11:11:46.443Z,95357.80
2023-11-22T11:14:16.688Z,95353.73
2023-11-22T11:16:51.180Z,95352.02
2023-11-22T11:19:19.805Z,95354.25
2023-11-22T11:21:49.342Z,95360.83
2023-11-22T11:24:19.541Z,95358.17
2023-11-22T11:26:54.708Z,95356.61
2023-11-22T11:29:33.443Z,95356.02
2023-11-22T11:32:04.223Z,95355.04
2023-11-22T11:34:32.484Z,95359.13
2023-11-22T11:37:01.993Z,95358.05
2023-11-22T11:39:31.908Z,95355.70
2023-11-22T11:42:17.256Z,95351.66
2023-11-22T11:45:08.535Z,95353.77
2023-11-22T11:47:37.254Z,95356.73
2023-11-22T11:50:06.651Z,95355.24
2023-11-22T11:52:40.346Z,95362.09
2023-11-22T11:55:08.958Z,95363.63
2023-11-22T11:57:38.480Z,95362.89
2023-11-22T12:00:07.708Z,95373.60
2023-11-22T12:02:42.759Z,95372.21
2023-11-22T12:05:11.107Z,95374.91
2023-11-22T12:07:39.433Z,95372.63
2023-11-22T12:10:08.079Z,95371.02
2023-11-22T12:12:36.389Z,95371.84
2023-11-22T12:15:06.017Z,95367.13
2023-11-22T12:17:35.385Z,95374.27
2023-11-22T12:20:17.669Z,95381.43
2023-11-22T12:22:47.606Z,95378.34
2023-11-22T12:25:16.117Z,95386.33
2023-11-22T12:27:47.302Z,95387.52
2023-11-22T12:30:35.606Z,95390.60
2023-11-22T12:33:14.439Z,95395.77
2023-11-22T12:35:45.558Z,95404.77
2023-11-22T12:38:17.894Z,95406.63
2023-11-22T12:40:50.383Z,95406.23
2023-11-22T12:43:18.809Z,95409.73
2023-11-22T12:45:47.937Z,95419.58
2023-11-22T12:48:25.200Z,95422.94
2023-11-22T12:50:55.390Z,95421.14
2023-11-22T12:53:26.539Z,95422.83
2023-11-22T12:55:59.075Z,95429.13
2023-11-22T12:58:27.751Z,95424.52
2023-11-22T13:01:02.032Z,95426.67
2023-11-22T13:03:33.679Z,95427.92
2023-11-22T13:06:04.861Z,95438.50
2023-11-22T13:08:34.255Z,95434.39
2023-11-22T13:11:02.736Z,95436.76
2023-11-22T13:13:32.448Z,95445.15
2023-11-22T13:16:01.353Z,95450.36
2023-11-22T13:18:29.742Z,95455.54
2023-11-22T13:20:58.250Z,95462.34
2023-11-22T13:23:26.494Z,95464.92
2023-11-22T13:25:54.986Z,95469.26
2023-11-22T13:28:25.443Z,95469.11
2023-11-22T13:30:53.590Z,95473.15
2023-11-22T13:33:21.755Z,95473.10
2023-11-22T13:35:50.244Z,95476.88
2023-11-22T13:38:19.722Z,95478.86
2023-11-22T13:40:48.004Z,95480.02
2023-11-22T13:43:18.447Z,95485.08
2023-11-22T13:45:46.942Z,95486.73
2023-11-22T13:48:15.501Z,95491.07
2023-11-22T13:50:43.920Z,95496.64
2023-11-22T13:53:12.798Z,95502.56
2023-11-22T13:55:41.262Z,95505.53
2023-11-22T13:58:10.367Z,95514.98
2023-11-22T14:00:40.150Z,95523.13
2023-11-22T14:03:09.314Z,95526.26
2023-11-22T14:05:40.172Z,95530.81
2023-11-22T14:08:09.034Z,95530.48
2023-11-22T14:10:37.634Z,95524.88
2023-11-22T14:13:07.383Z,95529.09
2023-11-22T14:15:36.657Z,95539.51
2023-11-22T14:18:05.688Z,95542.97
2023-11-22T14:20:36.165Z,95548.39
2023-11-22T14:23:04.889Z,95557.36
2023-11-22T14:25:33.194Z,95563.13
2023-11-22T14:28:01.429Z,95569.38
2023-11-22T14:30:31.963Z,95569.65
2023-11-22T14:33:01.106Z,95577.80
2023-11-22T14:35:29.571Z,95580.59
2023-11-22T14:37:59.967Z,95581.58
2023-11-22T14:40:28.678Z,95585.98
2023-11-22T14:42:58.027Z,95589.49
2023-11-22T14:45:28.379Z,95595.14
2023-11-22T14:47:58.035Z,95598.52
2023-11-22T14:50:29.824Z,95602.30
2023-11-22T14:52:58.083Z,95606.39
2023-11-22T14:55:27.598Z,95612.43
2023-11-22T14:57:58.818Z,95615.00
2023-11-22T15:00:27.625Z,95614.86
2023-11-22T15:02:57.840Z,95613.10
2023-11-22T15:05:27.550Z,95612.35
2023-11-22T15:07:56.592Z,95619.30
2023-11-22T15:10:26.971Z,95626.10
2023-11-22T15:12:56.804Z,95628.45
2023-11-22T15:15:27.241Z,95635.88
2023-11-22T15:17:56.265Z,95637.02
2023-11-22T15:20:24.916Z,95641.14
2023-11-22T15:22:53.528Z,95641.67
2023-11-22T15:25:21.809Z,95645.35
2023-11-22T15:27:49.981Z,95643.02
2023-11-22T15:30:20.449Z,95646.58
2023-11-22T15:32:49.684Z,95651.98
2023-11-22T15:35:19.148Z,95646.42
2023-11-22T15:37:47.783Z,95648.11
2023-11-22T15:40:18.738Z,95646.66
2023-11-22T15:42:47.373Z,95649.88
2023-11-22T15:45:15.387Z,95651.14
2023-11-22T15:47:46.742Z,95654.54
2023-11-22T15:50:17.859Z,95657.02
2023-11-22T15:52:47.142Z,95656.85
2023-11-22T15:55:15.301Z,95663.86
2023-11-22T15:57:43.551Z,95665.02
2023-11-22T16:00:13.980Z,95664.80
2023-11-22T16:02:42.680Z,95670.75
2023-11-22T16:05:13.603Z,95675.25
2023-11-22T16:07:43.254Z,95680.20
2023-11-22T16:10:12.453Z,95681.17
2023-11-22T16:12:40.669Z,95684.23
2023-11-22T16:15:09.871Z,95682.64
2023-11-22T16:17:38.362Z,95680.98
2023-11-22T16:20:12.520Z,95691.77
2023-11-22T16:22:46.048Z,95692.45
2023-11-22T16:25:15.679Z,95693.81
2023-11-22T16:27:43.903Z,95694.62
2023-11-22T16:30:12.631Z,95703.02
2023-11-22T16:32:41.622Z,95707.30
2023-11-22T16:35:13.705Z,95707.00
2023-11-22T16:37:43.624Z,95695.88
2023-11-22T16:40:11.853Z,95699.22
2023-11-22T16:42:39.999Z,95694.43
2023-11-22T16:45:09.114Z,95690.06
2023-11-22T16:47:38.164Z,95694.88
2023-11-22T16:50:08.666Z,95698.96
2023-11-22T16:52:36.844Z,95701.79
2023-11-22T16:55:05.809Z,95703.04
2023-11-22T16:57:34.320Z,95696.63
2023-11-22T17:00:06.413Z,95702.41
2023-11-22T17:02:34.580Z,95706.85
2023-11-22T17:05:04.289Z,95706.85
2023-11-22T17:07:34.073Z,95706.98
2023-11-22T17:10:02.178Z,95706.16
2023-11-22T17:12:30.499Z,95706.36
2023-11-22T17:14:58.647Z,95704.46
2023-11-22T17:17:29.745Z,95707.75
2023-11-22T17:19:58.080Z,95714.27
2023-11-22T17:22:28.673Z,95712.74
2023-11-22T17:24:58.815Z,95717.91
2023-11-22T17:27:27.408Z,95726.02
2023-11-22T17:29:55.772Z,95731.64
2023-11-22T17:32:24.454Z,95738.09
2023-11-22T17:34:53.692Z,95739.48
2023-11-22T17:37:21.882Z,95741.85
2023-11-22T17:39:52.842Z,95740.69
2023-11-22T17:42:21.097Z,95735.38
2023-11-22T17:44:52.969Z,95730.70
2023-11-22T17:47:21.350Z,95728.56
2023-11-22T17:49:52.434Z,95734.39
2023-11-22T17:52:20.587Z,95735.48
2023-11-22T17:54:48.806Z,95733.80
2023-11-22T17:57:18.039Z,95736.68
2023-11-22T17:59:46.193Z,95738.63
2023-11-22T18:02:16.357Z,95745.70
2023-11-22T18:04:44.770Z,95754.92
2023-11-22T18:07:16.079Z,95757.81
2023-11-22T18:09:47.209Z,95762.23
2023-11-22T18:12:16.782Z,95757.08
2023-11-22T18:14:48.221Z,95752.81
2023-11-22T18:17:16.534Z,95750.04
2023-11-22T18:19:47.077Z,95747.09
2023-11-22T18:22:15.195Z,95747.89
2023-11-22T18:24:43.276Z,95749.88
2023-11-22T18:27:11.422Z,95754.87
2023-11-22T18:29:39.626Z,95754.83
2023-11-22T18:32:09.857Z,95760.36
2023-11-22T18:34:38.626Z,95774.77
2023-11-22T18:37:07.624Z,95781.98
2023-11-22T18:39:35.752Z,95782.58
2023-11-22T18:42:04.575Z,95783.39
2023-11-22T18:44:37.564Z,95790.98
2023-11-22T18:47:06.430Z,95788.39
2023-11-22T18:49:34.981Z,95782.82
2023-11-22T18:52:04.048Z,95783.96
2023-11-22T18:54:32.133Z,95783.36
2023-11-22T18:57:01.664Z,95779.08
2023-11-22T18:59:29.896Z,95783.88
2023-11-22T19:02:00.394Z,95790.29
2023-11-22T19:04:28.796Z,95793.05
2023-11-22T19:06:56.899Z,95797.85
2023-11-22T19:09:25.114Z,95795.94
2023-11-22T19:11:53.446Z,95796.50
2023-11-22T19:14:22.848Z,95795.64
2023-11-22T19:16:50.998Z,95798.23
2023-11-22T19:19:21.666Z,95796.05
2023-11-22T19:21:49.833Z,95797.02
2023-11-22T19:24:18.021Z,95801.98
2023-11-22T19:26:47.226Z,95811.17
2023-11-22T19:29:15.250Z,95814.26
2023-11-22T19:31:44.920Z,95815.13
2023-11-22T19:34:15.954Z,95813.36
2023-11-22T19:36:47.251Z,95814.72
2023-11-22T19:39:17.799Z,95819.53
2023-11-22T19:41:46.018Z,95820.13
2023-11-22T19:44:15.722Z,95824.89
2023-11-22T19:46:44.020Z,95824.95
2023-11-22T19:49:13.746Z,95821.90
2023-11-22T19:51:43.162Z,95823.89
2023-11-22T19:54:12.259Z,95825.98
2023-11-22T19:56:41.713Z,95827.13
2023-11-22T19:59:09.846Z,95824.48
2023-11-22T20:01:43.619Z,95822.77
2023-11-22T20:04:12.859Z,95826.90
2023-11-22T20:06:46.397Z,95827.19
2023-11-22T20:09:15.016Z,95829.34
2023-11-22T20:11:43.073Z,95831.48
2023-11-22T20:14:11.491Z,95819.93
2023-11-22T20:16:39.765Z,95820.70
2023-11-22T20:19:08.181Z,95824.59
2023-11-22T20:21:43.404Z,95832.21
2023-11-22T20:24:11.739Z,95833.73
2023-11-22T20:26:39.941Z,95836.41
2023-11-22T20:29:08.231Z,95841.66
2023-11-22T20:31:36.452Z,95848.34
2023-11-22T20:34:04.884Z,95844.02
2023-11-22T20:36:33.282Z,95837.17
2023-11-22T20:39:01.336Z,95830.53
2023-11-22T20:41:29.890Z,95831.30
2023-11-22T20:44:00.215Z,95836.66
2023-11-22T20:46:28.587Z,95841.46
2023-11-22T20:48:56.724Z,95835.16
2023-11-22T20:51:24.889Z,95841.64
2023-11-22T20:53:53.166Z,95850.23
2023-11-22T20:56:21.321Z,95858.06
2023-11-22T20:58:49.515Z,95862.77
2023-11-22T21:01:17.734Z,95865.67
2023-11-22T21:03:46.044Z,95866.00
2023-11-22T21:06:17.767Z,95868.98
2023-11-22T21:08:48.895Z,95871.60
2023-11-22T21:11:17.658Z,95874.21
2023-11-22T21:13:46.234Z,95871.13
2023-11-22T21:16:14.351Z,95876.80
2023-11-22T21:18:42.757Z,95883.66
2023-11-22T21:21:14.581Z,95883.60
2023-11-22T21:23:43.459Z,95884.34
2023-11-22T21:26:13.585Z,95886.05
2023-11-22T21:28:43.136Z,95879.90
2023-11-22T21:31:19.874Z,95882.53
2023-11-22T21:33:49.516Z,95879.73
2023-11-22T21:36:18.725Z,95877.78
2023-11-22T21:38:47.205Z,95876.23
2023-11-22T21:41:15.709Z,95876.34
2023-11-22T21:43:44.403Z,95878.75
2023-11-22T21:46:19.883Z,95877.66
2023-11-22T21:48:48.164Z,95874.98
2023-11-22T21:51:16.609Z,95881.15
2023-11-22T21:53:44.808Z,95874.52
2023-11-22T21:56:12.960Z,95875.05
2023-11-22T21:58:41.160Z,95876.48
2023-11-22T22:01:12.140Z,95874.46
2023-11-22T22:03:42.267Z,95869.95
2023-11-22T22:06:11.109Z,95875.56
2023-11-22T22:08:42.691Z,95880.66
2023-11-22T22:11:11.160Z,95880.23
2023-11-22T22:13:39.329Z,95878.11
2023-11-22T22:16:07.906Z,95867.58
2023-11-22T22:18:38.177Z,95864.14
2023-11-22T22:21:06.789Z,95866.34
2023-11-22T22:23:35.983Z,95867.09
2023-11-22T22:26:05.488Z,95868.40
2023-11-22T22:28:33.847Z,95868.69
2023-11-22T22:31:02.384Z,95874.89
2023-11-22T22:33:30.586Z,95876.05
2023-11-22T22:35:59.197Z,95878.22
2023-11-22T22:38:27.264Z,95880.02
2023-11-22T22:40:55.463Z,95880.11
2023-11-22T22:43:23.587Z,95876.38
2023-11-22T22:45:52.279Z,95871.36
2023-11-22T22:48:21.144Z,95865.86
2023-11-22T22:50:49.712Z,95871.06
2023-11-22T22:53:18.365Z,95874.14
2023-11-22T22:55:46.678Z,95880.73
2023-11-22T22:58:14.921Z,95883.42
2023-11-22T23:00:43.213Z,95879.84
2023-11-22T23:03:13.259Z,95874.64
2023-11-22T23:05:42.011Z,95882.70
2023-11-22T23:08:10.810Z,95882.92
2023-11-22T23:10:39.616Z,95891.06
2023-11-22T23:13:08.456Z,95883.35
2023-11-22T23:15:38.122Z,95889.80
2023-11-22T23:18:07.688Z,95893.05
2023-11-22T23:20:46.317Z,95891.94
2023-11-22T23:23:18.937Z,95895.73
2023-11-22T23:25:48.030Z,95897.25
2023-11-22T23:28:16.490Z,95893.94
2023-11-22T23:30:44.666Z,95888.84
2023-11-22T23:33:13.032Z,95893.58
2023-11-22T23:35:44.065Z,95885.55
2023-11-22T23:38:12.163Z,95885.98
2023-11-22T23:40:40.322Z,95884.10
2023-11-22T23:43:09.452Z,95882.70
2023-11-22T23:45:38.748Z,95882.79
2023-11-22T23:48:07.245Z,95878.06
2023-11-22T23:50:35.661Z,95881.39
2023-11-22T23:53:03.877Z,95883.89
2023-11-22T23:55:31.960Z,95887.92
2023-11-22T23:57:59.993Z,95884.41
